Relevés horaires Beauvechain (Belgique)


Relevés horaires à Beauvechain - Lundi 30 Juill. 2018
Heure UTC1 Température [°C] Vent [km/h] Hum. [%] Pres.4 [hPa] Visi. [Km] Nébu. [octa] Préc.5 [mm] Cond.
2m. Res. Ros. Dir.2 Vit. Moy. Raf.3
23:00 20.3 20.3 16.3 NNO 1.9 -- 3.7 78 1015.7(0.0/3h) 20 -- -- --
22:00 20.3 20.3 16.1 NNO 1.9 -- 3.7 77 1015.8(0.9/3h) 20 -- -- --
21:00 20.7 20.7 15.9 NNO 1.9 -- 14.8 74 1015.8(1.1/3h) 20 -- -- --
20:00 22.2 22.2 16.0 NO 3.7 -- 14.8 68 1015.7(1.5/3h) 20 -- -- --
19:00 26.3 26.3 14.4 O 5.6 -- 11.1 48 1014.7(0.6/3h) 20 -- -- --
18:00 27.7 27.7 15.1 O 7.4 -- 20.4 46 1014.3(0.3/3h) 20 -- -- --
17:00 29.0 29.0 14.3 O 5.6 -- 14.8 41 1013.8(-0.2/3h) 20 -- -- --
16:00 28.6 28.6 13.8 OSO 9.3 -- 18.5 40 1013.8(-0.5/3h) 20 3/8 -- --
15:00 29.7 29.7 12.1 SSO 11.1 -- 20.4 34 1014(-0.3/3h) 20 6/8 -- --
14:00 30.4 30.4 13.0 SSO 11.1 -- 20.4 35 1014(-0.4/3h) 20 6/8 -- --
13:00 27.7 27.7 14.1 SO 11.1 -- 20.4 43 1014.5(-0.5/3h) 20 5/8 -- --
12:00 28.2 28.2 14.2 SSO 11.1 -- 20.4 42 1014.3(-0.4/3h) 20 3/8 -- --
11:00 27.5 27.5 14.5 S 11.1 -- 18.5 45 1014.6(-0.3/3h) 20 3/8 -- --
10:00 26.4 26.4 14.4 SSO 11.1 -- 18.5 48 1015.1(0.1/3h) 20 3/8 -- --
09:00 26.2 26.2 14.8 SSO 11.1 -- 18.5 49 1015(0.2/3h) 20 3/8 -- --
08:00 24.5 24.5 14.7 SSO 13.0 -- 18.5 54 1015.1(0.6/3h) 20 3/8 -- --
07:00 22.8 22.8 14.6 SSO 11.1 -- 16.7 60 1015.1(0.6/3h) 20 3/8 -- --
06:00 20.4 20.4 14.1 SSO 5.6 -- 9.3 67 1014.8(0.4/3h) 20 5/8 trace/12h
--
05:00 20.3 20.3 13.4 S 5.6 -- 7.4 65 1014.7(0.4/3h) 20 5/8 -- --
04:00 20.2 20.2 13.5 S 5.6 -- 5.6 65 1014.6(0.5/3h) 20 5/8 -- --
03:00 20.5 20.5 13.9 S 5.6 -- 9.3 66 1014.5(0.6/3h) 20 -- -- --
02:00 21.1 21.1 13.8 SSE 5.6 -- 9.3 63 1014.1(0.3/3h) 20 -- -- --
01:00 21.2 21.2 13.3 S 3.7 -- 9.3 61 1013.8(0.2/3h) 20 -- -- --
00:00 22.1 22.1 13.3 S 5.6 -- 13.0 57 1013.7(0.4/3h) 20 -- trace/6h
NA

1 Coordinated Universal Time. Actuellement il est 10:00 locale et 08:00 UTC.

2 Le vent souffle depuis la direction indiquée vers la direction oposée.

3 Les rafales max. sont disponible 40 min après l'heure du relevé.

4 Pour les stations d'altitude (plus de 600m) le géopotentiel du niveau le plus proche de la pression obligatoire est indiqué.

5 Les stations disposant d'un diffuseur peuvent indiquer "trace". Cela signifie que des précipitations ont touchés le sol mais que la quantité est inférieure à 0.1 mm.

Récapitulatif de la journée
Température [°C] Vent [km/h] Ensoleillement4 [h] Precipitations totale5 [mm] Pression [Hpa]
Min1 Max.2 Moy.3 Max. Min Max.
20.1 30.7 0 20.4 0 h 0 min 0 1013.7 1015.8

1 Température minimale relevée entre 18:00 UTC la veille et 18:00 UTC le jour donné.

2 Température maximale relevée entre 06:00 UTC le jour donné et 06:00 UTC le lendemain.

3 Vent moyen de la journée basé sur les relevés horaires.

4 Ensoleillement en heures relevé entre 06:00 UTC la veille et 06:00 UTC le jour donné.

5 Précipitations totales tombées entre 06:00 UTC la jour donné et 06:00 UTC le lendemain.

Graphiques horaires